Time;durP1;ratioP1;P1;durP2;ratioP2;P2;SDS_P1;SDS_P2;PMS_P1;PMS_P2;Temp;Humidity;BMP_temperature;BMP_pressure;BME280_temperature;BME280_humidity;BME280_pressure;Samples;Min_cycle;Max_cycle;Signal;HPM_P1;HPM_P2
2021/10/14 00:00:31;;;;;;;;;23.75;19.00;;;;;9.51;62.80;102077.34;5057015;28;45314;-61
2021/10/14 00:02:58;;;;;;;;;13.25;10.25;;;;;9.46;62.04;102074.13;5038387;28;63843;-61
2021/10/14 00:05:23;;;;;;;;;12.75;9.50;;;;;9.42;62.03;102075.25;5056930;28;45228;-61
2021/10/14 00:07:49;;;;;;;;;11.25;11.25;;;;;9.38;61.99;102073.75;5039116;28;46229;-60
2021/10/14 00:10:14;;;;;;;;;12.75;10.25;;;;;9.35;61.83;102088.72;5038064;28;67975;-61
2021/10/14 00:12:39;;;;;;;;;15.00;12.75;;;;;9.30;62.03;102082.91;5056197;28;62498;-61
2021/10/14 00:15:05;;;;;;;;;15.00;14.25;;;;;9.29;62.13;102082.97;5057046;28;45226;-59
2021/10/14 00:17:31;;;;;;;;;22.00;18.25;;;;;9.30;62.53;102085.50;5021878;28;46515;-61
2021/10/14 00:19:56;;;;;;;;;18.00;14.75;;;;;9.31;62.59;102084.59;5055881;28;64334;-60
2021/10/14 00:22:22;;;;;;;;;16.75;16.25;;;;;9.31;62.06;102087.22;5056098;28;57833;-61
2021/10/14 00:24:47;;;;;;;;;17.25;15.00;;;;;9.32;62.24;102085.41;5056037;28;53448;-61
2021/10/14 00:27:12;;;;;;;;;22.00;16.25;;;;;9.32;62.77;102083.66;5055854;28;63795;-61
2021/10/14 00:29:38;;;;;;;;;22.25;19.00;;;;;9.32;62.79;102080.16;5037931;28;64913;-61
2021/10/14 00:32:03;;;;;;;;;21.75;18.25;;;;;9.32;62.76;102085.41;5056784;28;45454;-61
2021/10/14 00:34:29;;;;;;;;;19.50;18.25;;;;;9.29;62.61;102082.97;5056498;28;45565;-61
2021/10/14 00:36:54;;;;;;;;;15.25;15.25;;;;;9.27;62.90;102085.69;5055528;28;67404;-61
2021/10/14 00:39:19;;;;;;;;;16.00;15.00;;;;;9.22;62.29;102076.41;5056314;28;45373;-61
2021/10/14 00:41:45;;;;;;;;;20.00;15.00;;;;;9.18;62.32;102080.97;5055824;28;61011;-60
2021/10/14 00:44:10;;;;;;;;;15.50;13.25;;;;;9.15;62.22;102083.78;5055672;28;62755;-61
2021/10/14 00:46:35;;;;;;;;;21.75;17.50;;;;;9.12;62.63;102076.09;5055490;28;70287;-60
2021/10/14 00:49:01;;;;;;;;;17.00;15.50;;;;;9.12;62.34;102082.19;5055457;28;70898;-60
2021/10/14 00:51:27;;;;;;;;;13.50;13.50;;;;;9.11;62.13;102085.75;5055750;28;56800;-61
2021/10/14 00:53:52;;;;;;;;;20.00;18.75;;;;;9.10;62.20;102085.81;5056225;28;45408;-61
2021/10/14 00:56:18;;;;;;;;;17.00;16.00;;;;;9.11;62.31;102077.00;5055382;28;70385;-61
2021/10/14 00:58:43;;;;;;;;;21.00;17.00;;;;;9.12;62.47;102076.09;5037313;28;70872;-61
2021/10/14 01:01:08;;;;;;;;;19.75;19.75;;;;;9.10;62.59;102075.31;5038289;28;45185;-61
2021/10/14 01:03:34;;;;;;;;;19.00;17.00;;;;;9.09;62.43;102071.00;5037457;28;64518;-61
2021/10/14 01:05:59;;;;;;;;;20.00;20.00;;;;;9.10;62.47;102065.69;5038041;28;47970;-61
2021/10/14 01:08:25;;;;;;;;;27.25;18.75;;;;;9.11;62.70;102071.78;5038257;28;45282;-61
2021/10/14 01:10:51;;;;;;;;;24.25;19.25;;;;;9.10;62.59;102064.84;5055651;28;58569;-61
2021/10/14 01:13:16;;;;;;;;;21.75;20.00;;;;;9.11;62.41;102067.38;5055995;28;45447;-61
2021/10/14 01:15:42;;;;;;;;;22.00;18.00;;;;;9.11;62.63;102056.03;5055842;28;48936;-61
2021/10/14 01:18:07;;;;;;;;;27.00;20.50;;;;;9.11;63.10;102056.03;5037252;28;63816;-61
2021/10/14 01:20:33;;;;;;;;;23.00;19.00;;;;;9.10;63.32;102059.59;5055343;28;61737;-61
2021/10/14 01:22:58;;;;;;;;;24.50;21.00;;;;;9.11;63.10;102061.28;5055291;28;58392;-61
2021/10/14 01:25:24;;;;;;;;;24.50;19.50;;;;;9.11;62.87;102056.03;5038021;28;45332;-61
2021/10/14 01:27:50;;;;;;;;;22.00;20.00;;;;;9.10;62.83;102055.22;5055908;28;45465;-61
2021/10/14 01:30:15;;;;;;;;;26.50;21.00;;;;;9.10;63.06;102052.59;5056031;28;45517;-61
2021/10/14 01:32:40;;;;;;;;;22.50;19.00;;;;;9.09;63.30;102042.16;5056078;28;45604;-61
2021/10/14 01:35:06;;;;;;;;;24.50;17.00;;;;;9.09;63.24;102047.41;5056509;28;46422;-61
2021/10/14 01:37:32;;;;;;;;;22.50;20.50;;;;;9.09;62.93;102045.66;5041315;28;45234;-61
2021/10/14 01:39:58;;;;;;;;;25.50;20.25;;;;;9.08;62.73;102045.72;5059522;28;45390;-60
2021/10/14 01:42:23;;;;;;;;;19.00;15.75;;;;;9.04;62.32;102040.66;5059398;28;45220;-61
2021/10/14 01:44:48;;;;;;;;;22.25;17.00;;;;;8.98;61.95;102041.03;5058728;28;45439;-61
2021/10/14 01:47:14;;;;;;;;;26.75;19.25;;;;;8.96;62.12;102042.03;5059115;28;45315;-61
2021/10/14 01:49:39;;;;;;;;;22.75;19.50;;;;;8.96;62.55;102040.28;5040362;28;64254;-61
2021/10/14 01:52:05;;;;;;;;;21.25;18.25;;;;;8.96;62.57;102040.28;5058233;28;65499;-60
2021/10/14 01:54:30;;;;;;;;;21.50;20.50;;;;;8.96;62.62;102039.41;5041002;28;45484;-61
2021/10/14 01:56:55;;;;;;;;;26.50;19.50;;;;;8.95;62.58;102037.72;5040326;28;64373;-60
2021/10/14 01:59:21;;;;;;;;;21.50;19.00;;;;;8.95;62.80;102035.09;5058232;28;62652;-61
2021/10/14 02:01:46;;;;;;;;;21.75;19.75;;;;;8.91;62.77;102040.53;5040317;28;61945;-61
2021/10/14 02:04:11;;;;;;;;;20.75;19.25;;;;;8.86;62.32;102037.31;5057659;28;75576;-60
2021/10/14 02:06:37;;;;;;;;;21.50;17.25;;;;;8.82;62.41;102040.22;5058787;28;45336;-61
2021/10/14 02:09:03;;;;;;;;;26.00;24.50;;;;;8.78;62.65;102033.47;5058166;28;64801;-61
2021/10/14 02:11:28;;;;;;;;;25.25;21.00;;;;;8.76;62.47;102030.91;5059014;28;45437;-61
2021/10/14 02:13:53;;;;;;;;;19.25;17.75;;;;;8.73;62.87;102029.31;5039160;28;71567;-61
2021/10/14 02:16:19;;;;;;;;;18.25;17.50;;;;;8.74;62.97;102030.19;5058461;28;55361;-61
2021/10/14 02:18:44;;;;;;;;;30.50;25.00;;;;;8.74;63.20;102028.38;5058736;28;45399;-60
2021/10/14 02:21:10;;;;;;;;;27.00;23.25;;;;;8.79;63.36;102024.66;5057800;28;65761;-61
2021/10/14 02:23:35;;;;;;;;;27.50;22.25;;;;;8.79;63.06;102022.88;5058170;28;45470;-60
2021/10/14 02:26:00;;;;;;;;;27.50;22.75;;;;;8.81;62.99;102023.63;5057838;28;66480;-61
2021/10/14 02:28:26;;;;;;;;;23.25;21.00;;;;;8.82;62.49;102024.50;5058509;28;45351;-60
2021/10/14 02:30:51;;;;;;;;;24.75;22.50;;;;;8.79;62.61;102019.44;5058303;28;50521;-61
2021/10/14 02:33:17;;;;;;;;;26.75;22.25;;;;;8.79;63.37;102014.19;5057584;28;68174;-61
2021/10/14 02:35:42;;;;;;;;;23.00;21.00;;;;;8.80;63.55;102015.88;5057065;28;72419;-61
2021/10/14 02:38:07;;;;;;;;;30.25;27.25;;;;;8.80;63.64;102015.88;5040265;28;45585;-61
2021/10/14 02:40:33;;;;;;;;;21.75;16.00;;;;;8.81;63.55;102018.38;5057636;28;63537;-61
2021/10/14 02:42:58;;;;;;;;;26.50;23.25;;;;;8.82;63.11;102019.25;5040268;28;45567;-61
2021/10/14 02:45:23;;;;;;;;;28.25;25.00;;;;;8.82;63.33;102014.00;5057497;28;63410;-61
2021/10/14 02:47:49;;;;;;;;;26.75;23.00;;;;;8.81;63.23;102013.16;5056123;28;64216;-61
2021/10/14 02:50:14;;;;;;;;;30.25;24.75;;;;;8.79;63.02;102016.81;5058132;28;45556;-61
2021/10/14 02:52:40;;;;;;;;;21.25;19.00;;;;;8.76;63.02;102015.19;5057273;28;69074;-61
2021/10/14 02:55:05;;;;;;;;;23.25;20.00;;;;;8.72;62.74;102014.53;5057370;28;62923;-61
2021/10/14 02:57:31;;;;;;;;;28.25;22.00;;;;;8.68;62.83;102017.44;5040184;28;45386;-61
2021/10/14 02:59:56;;;;;;;;;27.50;22.00;;;;;8.65;62.84;102018.44;5057164;28;68252;-61
2021/10/14 03:02:21;;;;;;;;;27.50;23.25;;;;;8.64;62.83;102021.16;5056983;28;68230;-61
2021/10/14 03:04:47;;;;;;;;;23.75;22.75;;;;;8.64;63.09;102016.72;5057246;28;66269;-60
2021/10/14 03:07:12;;;;;;;;;24.25;22.25;;;;;8.65;63.10;102022.84;5057414;28;59950;-61
2021/10/14 03:09:37;;;;;;;;;23.00;21.50;;;;;8.63;62.91;102019.47;5057583;28;45293;-61
2021/10/14 03:12:03;;;;;;;;;21.75;21.00;;;;;8.63;63.48;102019.47;5039147;28;65635;-61
2021/10/14 03:14:28;;;;;;;;;23.25;22.25;;;;;8.65;63.65;102028.09;5056597;28;71556;-60
2021/10/14 03:16:54;;;;;;;;;25.75;22.50;;;;;8.66;63.74;102022.72;5057653;28;47792;-61
2021/10/14 03:19:19;;;;;;;;;29.25;24.25;;;;;8.68;63.49;102020.88;5039627;28;45347;-61
2021/10/14 03:21:44;;;;;;;;;25.75;21.00;;;;;8.68;63.04;102017.44;5057386;28;53156;-60
2021/10/14 03:24:10;;;;;;;;;22.50;21.50;;;;;8.66;63.29;102009.63;5056478;28;69729;-61
2021/10/14 03:26:35;;;;;;;;;24.50;22.25;;;;;8.66;63.31;102019.28;5057068;28;61665;-61
2021/10/14 03:29:01;;;;;;;;;26.75;25.25;;;;;8.63;63.05;102016.84;5056988;28;61656;-61
2021/10/14 03:31:26;;;;;;;;;26.75;24.00;;;;;8.59;62.57;102011.78;5056753;28;69923;-61
2021/10/14 03:33:51;;;;;;;;;28.75;26.00;;;;;8.57;62.56;102020.63;5057399;28;45395;-61
2021/10/14 03:36:17;;;;;;;;;28.00;24.75;;;;;8.55;62.79;102022.50;5057664;28;45811;-61
2021/10/14 03:38:42;;;;;;;;;32.00;24.50;;;;;8.53;62.52;102017.34;5056557;28;65290;-61
2021/10/14 03:41:07;;;;;;;;;27.00;23.25;;;;;8.52;62.39;102022.66;5056799;28;57587;-61
2021/10/14 03:43:33;;;;;;;;;26.25;22.25;;;;;8.50;62.45;102024.53;5021950;28;65948;-61
2021/10/14 03:45:58;;;;;;;;;27.50;23.25;;;;;8.47;62.36;102033.38;5038818;28;61569;-61
2021/10/14 03:48:24;;;;;;;;;29.50;24.00;;;;;8.45;62.75;102025.63;5056633;28;63949;-61
2021/10/14 03:50:49;;;;;;;;;27.50;23.75;;;;;8.44;62.97;102026.53;5056606;28;58303;-61
2021/10/14 03:53:14;;;;;;;;;26.50;24.75;;;;;8.42;63.35;102027.53;5057238;28;45332;-60
2021/10/14 03:55:40;;;;;;;;;29.00;23.50;;;;;8.41;63.43;102021.47;5057497;28;45161;-61
2021/10/14 03:58:05;;;;;;;;;29.75;23.75;;;;;8.41;63.74;102026.72;5056102;28;64178;-61
2021/10/14 04:00:31;;;;;;;;;20.75;20.50;;;;;8.42;63.75;102030.16;5056181;28;66588;-61
2021/10/14 04:02:56;;;;;;;;;26.25;22.25;;;;;8.41;64.07;102026.72;5056856;28;50159;-61
2021/10/14 04:05:21;;;;;;;;;29.25;23.25;;;;;8.40;63.74;102025.03;5057003;28;45407;-61
2021/10/14 04:07:47;;;;;;;;;30.25;21.50;;;;;8.41;63.73;102028.47;5056245;28;65043;-61
2021/10/14 04:10:14;;;;;;;;;30.00;27.00;;;;;8.38;63.56;102039.97;5056246;28;62203;-60
2021/10/14 04:12:40;;;;;;;;;27.00;23.25;;;;;8.37;63.64;102032.19;5039202;28;45966;-61
2021/10/14 04:15:05;;;;;;;;;24.00;23.00;;;;;8.37;63.54;102037.44;5056990;28;45229;-61
2021/10/14 04:17:31;;;;;;;;;22.00;20.00;;;;;8.38;63.60;102034.75;5056921;28;45466;-61
2021/10/14 04:19:56;;;;;;;;;23.25;21.50;;;;;8.37;63.55;102037.44;5056637;28;45437;-61
2021/10/14 04:22:21;;;;;;;;;22.75;21.00;;;;;8.35;63.39;102036.66;5021196;28;68924;-61
2021/10/14 04:24:48;;;;;;;;;22.50;18.50;;;;;8.33;63.61;102039.38;5056455;28;45310;-60
2021/10/14 04:27:16;;;;;;;;;30.25;25.00;;;;;8.34;63.93;102046.31;5056831;28;45384;-61
2021/10/14 04:29:41;;;;;;;;;28.50;26.25;;;;;8.33;64.10;102039.38;5056523;28;46382;-61
2021/10/14 04:32:08;;;;;;;;;27.00;22.50;;;;;8.32;64.24;102043.75;5055613;28;72579;-61
2021/10/14 04:34:33;;;;;;;;;21.75;20.75;;;;;8.32;63.84;102037.69;5038552;28;45336;-61
2021/10/14 04:36:58;;;;;;;;;25.00;22.25;;;;;8.30;63.48;102039.56;5056480;28;45534;-61
2021/10/14 04:39:24;;;;;;;;;34.75;31.25;;;;;8.27;63.31;102037.09;5055378;28;69250;-61
2021/10/14 04:41:50;;;;;;;;;40.25;35.75;;;;;8.26;63.39;102038.03;5038678;28;45320;-61
2021/10/14 04:44:16;;;;;;;;;37.75;32.50;;;;;8.26;63.23;102038.84;5056507;28;45407;-60
2021/10/14 04:46:41;;;;;;;;;26.75;22.25;;;;;8.27;63.14;102039.72;5056227;28;45288;-60
2021/10/14 04:49:06;;;;;;;;;26.00;23.00;;;;;8.26;63.07;102041.47;5037604;28;63217;-60
2021/10/14 04:51:32;;;;;;;;;27.00;23.75;;;;;8.24;62.92;102035.47;5038243;28;45333;-60
2021/10/14 04:53:57;;;;;;;;;24.25;22.50;;;;;8.23;63.05;102040.81;5055362;28;66953;-60
2021/10/14 04:56:22;;;;;;;;;22.50;22.50;;;;;8.21;63.31;102046.16;5055337;28;66433;-60
2021/10/14 04:58:48;;;;;;;;;21.25;20.00;;;;;8.20;63.37;102040.97;5037687;28;45317;-60
2021/10/14 05:01:13;;;;;;;;;26.75;23.50;;;;;8.19;63.79;102047.13;5055080;28;69824;-59
2021/10/14 05:03:39;;;;;;;;;24.50;21.00;;;;;8.16;63.55;102040.31;5055984;28;45784;-60
2021/10/14 05:06:04;;;;;;;;;30.50;26.25;;;;;8.15;63.57;102039.44;5056166;28;45602;-60
2021/10/14 05:08:29;;;;;;;;;26.75;24.50;;;;;8.16;63.78;102035.06;5054881;28;61734;-59
2021/10/14 05:10:55;;;;;;;;;24.00;23.00;;;;;8.17;64.01;102042.84;5056764;28;71432;-60
2021/10/14 05:13:20;;;;;;;;;36.50;30.50;;;;;8.15;63.75;102043.84;5058299;28;67371;-60
2021/10/14 05:15:45;;;;;;;;;26.00;25.00;;;;;8.14;64.29;102039.53;5058617;28;63258;-60
2021/10/14 05:18:11;;;;;;;;;24.00;21.75;;;;;8.13;64.49;102048.31;5058277;28;68145;-60
2021/10/14 05:20:36;;;;;;;;;23.00;20.25;;;;;8.11;64.47;102045.78;5023217;28;64702;-60
2021/10/14 05:23:02;;;;;;;;;27.25;22.75;;;;;8.09;64.72;102045.00;5038857;28;65775;-60
2021/10/14 05:25:27;;;;;;;;;21.00;19.25;;;;;8.09;64.33;102047.63;5057743;28;45461;-60
2021/10/14 05:27:52;;;;;;;;;19.50;19.00;;;;;8.07;64.06;102044.25;5057371;28;45586;-60
2021/10/14 05:30:18;;;;;;;;;21.50;18.75;;;;;8.05;63.81;102046.09;5056781;28;66586;-60
2021/10/14 05:32:43;;;;;;;;;27.75;25.00;;;;;8.02;63.65;102038.41;5057268;28;49896;-60
2021/10/14 05:35:09;;;;;;;;;24.75;21.00;;;;;8.01;64.17;102050.66;5040024;28;45562;-60
2021/10/14 05:37:34;;;;;;;;;24.25;21.00;;;;;8.01;64.60;102049.81;5057581;28;71391;-60
2021/10/14 05:39:59;;;;;;;;;24.50;22.25;;;;;7.99;64.17;102054.28;5058736;28;45383;-60
2021/10/14 05:42:25;;;;;;;;;26.75;20.25;;;;;7.97;64.18;102049.13;5041239;28;45789;-60
2021/10/14 05:44:50;;;;;;;;;24.25;20.25;;;;;7.95;64.40;102048.38;5058112;28;63165;-60
2021/10/14 05:47:15;;;;;;;;;27.25;23.00;;;;;7.93;64.33;102049.41;5040053;28;66512;-60
2021/10/14 05:49:41;;;;;;;;;24.00;24.00;;;;;7.89;63.89;102050.47;5058086;28;62651;-60
2021/10/14 05:52:06;;;;;;;;;29.00;24.50;;;;;7.84;63.78;102048.94;5058136;28;63284;-60
2021/10/14 05:54:32;;;;;;;;;27.50;20.50;;;;;7.82;64.42;102042.09;5040846;28;45543;-60
2021/10/14 05:56:58;;;;;;;;;25.50;21.25;;;;;7.82;64.48;102039.47;5074081;27;46497;-60
2021/10/14 05:59:26;;;;;;;;;29.25;24.00;;;;;7.84;64.44;102046.34;5058458;28;45755;-60
2021/10/14 06:01:52;;;;;;;;;25.50;22.00;;;;;7.86;64.49;102047.09;5058897;28;45420;-60
2021/10/14 06:04:17;;;;;;;;;25.75;21.25;;;;;7.86;64.93;102043.63;5040233;28;59077;-60
2021/10/14 06:06:42;;;;;;;;;23.50;22.00;;;;;7.86;64.85;102046.25;5023958;28;45615;-60
2021/10/14 06:09:08;;;;;;;;;26.00;23.50;;;;;7.87;64.96;102043.56;5058195;28;52866;-60
2021/10/14 06:11:33;;;;;;;;;27.75;21.75;;;;;7.83;64.85;102049.88;5058784;28;45568;-60
2021/10/14 06:13:58;;;;;;;;;28.50;24.50;;;;;7.80;64.77;102036.94;5058489;28;45241;-59
2021/10/14 06:16:24;;;;;;;;;27.25;24.00;;;;;7.80;64.43;102034.34;5057715;28;66854;-60
2021/10/14 06:18:49;;;;;;;;;24.75;22.25;;;;;7.79;64.33;102031.78;5057609;28;68177;-60
2021/10/14 06:21:15;;;;;;;;;29.75;27.00;;;;;7.78;64.03;102036.19;5039418;28;62253;-60
2021/10/14 06:23:40;;;;;;;;;32.50;28.75;;;;;7.77;64.00;102034.50;5058279;28;45509;-60
2021/10/14 06:26:05;;;;;;;;;36.25;31.50;;;;;7.77;64.21;102037.13;5057424;28;66137;-60
2021/10/14 06:28:31;;;;;;;;;29.75;27.25;;;;;7.79;64.33;102034.41;5039428;28;67324;-59
2021/10/14 06:30:56;;;;;;;;;36.00;29.75;;;;;7.78;64.80;102038.81;5057918;28;51813;-60
2021/10/14 06:33:22;;;;;;;;;37.00;29.00;;;;;7.79;65.09;102037.03;5058156;28;45305;-59
2021/10/14 06:35:47;;;;;;;;;23.25;22.00;;;;;7.80;65.31;102042.19;5040205;28;45993;-60
2021/10/14 06:38:12;;;;;;;;;31.75;22.75;;;;;7.82;65.53;102036.84;5040014;28;45337;-59
2021/10/14 06:40:38;;;;;;;;;34.25;30.75;;;;;7.84;65.16;102037.63;5057973;28;47250;-60
2021/10/14 06:43:03;;;;;;;;;34.50;27.25;;;;;7.85;64.80;102034.94;5057470;28;64869;-59
2021/10/14 06:45:28;;;;;;;;;35.00;27.25;;;;;7.86;64.99;102041.00;5039063;28;66087;-60
2021/10/14 06:47:54;;;;;;;;;37.50;31.00;;;;;7.88;64.58;102041.78;5057144;28;71435;-60
2021/10/14 06:50:19;;;;;;;;;33.75;27.00;;;;;7.89;64.84;102040.84;5058109;28;45370;-59
2021/10/14 06:52:45;;;;;;;;;23.75;22.75;;;;;7.92;65.04;102045.09;5057235;28;64320;-60
2021/10/14 06:55:10;;;;;;;;;29.50;23.25;;;;;7.94;65.41;102046.69;5039606;28;53801;-60
2021/10/14 06:57:36;;;;;;;;;27.75;26.00;;;;;7.97;65.08;102054.38;5039899;28;45403;-60
2021/10/14 07:00:02;;;;;;;;;33.50;26.50;;;;;8.00;65.13;102048.13;5057987;28;45220;-59
2021/10/14 07:02:28;;;;;;;;;29.25;24.50;;;;;8.02;65.11;102043.66;5057988;28;45313;-59
2021/10/14 07:04:53;;;;;;;;;31.50;27.25;;;;;8.04;65.21;102039.19;5057184;28;63188;-60
2021/10/14 07:07:18;;;;;;;;;35.75;27.50;;;;;8.07;65.28;102046.88;5056837;28;69764;-60
2021/10/14 07:09:44;;;;;;;;;32.25;28.75;;;;;8.10;65.22;102040.63;5057007;28;63966;-60
2021/10/14 07:12:10;;;;;;;;;28.50;25.00;;;;;8.15;65.65;102042.06;5039148;28;52740;-60
2021/10/14 07:14:39;;;;;;;;;24.75;22.50;;;;;8.21;65.87;102045.28;5057527;28;46082;-60
2021/10/14 07:17:04;;;;;;;;;30.00;26.75;;;;;8.26;66.13;102041.47;5039558;28;45882;-60
2021/10/14 07:19:30;;;;;;;;;31.25;24.75;;;;;8.30;66.29;102040.38;5056970;28;63357;-60
2021/10/14 07:21:55;;;;;;;;;50.75;40.25;;;;;8.33;66.39;102039.38;5056871;28;64085;-60
2021/10/14 07:24:21;;;;;;;;;48.25;38.25;;;;;8.37;66.81;102042.66;5056363;28;67212;-60
2021/10/14 07:26:46;;;;;;;;;54.75;43.75;;;;;8.42;66.31;102038.03;5057324;28;45359;-59
2021/10/14 07:29:11;;;;;;;;;48.00;37.25;;;;;8.46;66.85;102029.94;5039817;28;45426;-60
2021/10/14 07:31:37;;;;;;;;;40.25;36.25;;;;;8.51;66.79;102026.22;5056471;28;69040;-60
2021/10/14 07:34:03;;;;;;;;;46.00;37.50;;;;;8.54;66.84;102036.53;5035447;28;46353;-60
2021/10/14 07:36:28;;;;;;;;;48.25;38.50;;;;;8.59;66.69;102034.50;5052122;28;45520;-60
2021/10/14 07:38:53;;;;;;;;;51.00;37.00;;;;;8.64;66.64;102032.47;5037395;28;45666;-60
2021/10/14 07:41:19;;;;;;;;;50.25;39.50;;;;;8.70;66.71;102036.53;5019635;28;46453;-60
2021/10/14 07:43:44;;;;;;;;;50.50;38.75;;;;;8.76;66.11;102039.63;5036421;28;60192;-60
2021/10/14 07:46:09;;;;;;;;;44.75;35.25;;;;;8.82;66.67;102034.97;5054530;28;63751;-60
2021/10/14 07:48:35;;;;;;;;;41.50;35.25;;;;;8.87;66.57;102028.53;5053626;28;56818;-60
2021/10/14 07:51:01;;;;;;;;;42.50;33.00;;;;;8.95;66.49;102024.63;5036021;28;45474;-60
2021/10/14 07:53:27;;;;;;;;;43.25;35.25;;;;;9.01;66.49;102019.84;5054054;28;46230;-60
2021/10/14 07:55:52;;;;;;;;;39.00;35.25;;;;;9.10;66.45;102023.75;5036875;28;45476;-60
2021/10/14 07:58:17;;;;;;;;;47.00;39.50;;;;;9.23;66.33;102023.03;5054936;28;45359;-60
2021/10/14 08:00:43;;;;;;;;;50.00;40.75;;;;;9.38;66.07;102029.13;5053047;28;60380;-61
2021/10/14 08:03:08;;;;;;;;;48.50;40.00;;;;;9.56;66.01;102032.44;5035509;28;68225;-60
2021/10/14 08:05:34;;;;;;;;;57.75;41.25;;;;;9.77;65.59;102036.41;5035688;28;45561;-60
2021/10/14 08:08:00;;;;;;;;;55.25;45.00;;;;;10.02;65.10;102031.41;5054164;28;59724;-60
2021/10/14 08:10:25;;;;;;;;;54.50;42.75;;;;;10.29;64.54;102027.97;5054357;28;45599;-60
2021/10/14 08:12:51;;;;;;;;;55.50;44.50;;;;;10.57;64.33;102029.72;5053887;28;49578;-60
2021/10/14 08:15:16;;;;;;;;;60.50;47.25;;;;;10.87;63.40;102027.81;5052852;28;65989;-60
2021/10/14 08:17:42;;;;;;;;;56.50;45.75;;;;;11.13;62.97;102037.44;5035861;28;64761;-60
2021/10/14 08:20:07;;;;;;;;;55.75;44.00;;;;;11.42;62.64;102029.38;5053197;28;50553;-60
2021/10/14 08:22:36;;;;;;;;;57.00;44.25;;;;;11.71;61.69;102033.56;5053428;28;46301;-60
2021/10/14 08:25:05;;;;;;;;;55.00;42.75;;;;;11.97;61.14;102034.38;5053550;28;45876;-60
2021/10/14 08:27:31;;;;;;;;;55.75;42.25;;;;;12.26;60.89;102031.47;5054182;28;45483;-60
2021/10/14 08:29:56;;;;;;;;;52.75;40.50;;;;;12.52;60.48;102041.09;5052980;28;57684;-60
2021/10/14 08:32:22;;;;;;;;;50.25;38.75;;;;;12.79;59.33;102034.75;5053119;28;62184;-60
2021/10/14 08:34:47;;;;;;;;;47.00;37.25;;;;;13.05;59.09;102027.53;5052444;28;45534;-60
2021/10/14 08:37:12;;;;;;;;;50.75;40.00;;;;;13.31;58.44;102028.19;5053923;28;45564;-60
2021/10/14 08:39:38;;;;;;;;;49.00;40.00;;;;;13.58;57.65;102026.22;5052125;28;45468;-60
2021/10/14 08:42:03;;;;;;;;;49.75;41.00;;;;;13.81;57.11;102021.78;5052485;28;63113;-60
2021/10/14 08:44:30;;;;;;;;;45.75;36.75;;;;;14.02;57.00;102021.88;5052872;28;45309;-60
2021/10/14 08:46:55;;;;;;;;;43.50;37.00;;;;;14.25;55.65;102021.84;5054037;28;45508;-61
2021/10/14 08:49:21;;;;;;;;;46.50;35.75;;;;;14.46;55.83;102021.06;5034018;28;45652;-60
2021/10/14 08:51:47;;;;;;;;;43.00;36.50;;;;;14.68;54.99;102014.84;5053382;28;45369;-60
2021/10/14 08:54:12;;;;;;;;;40.25;35.25;;;;;14.89;54.84;102012.25;5053861;28;46277;-61
2021/10/14 08:56:45;;;;;;;;;46.25;36.25;;;;;15.10;54.59;102020.19;5053303;28;63310;-61
2021/10/14 08:59:12;;;;;;;;;45.00;36.00;;;;;15.33;54.08;102016.59;5054200;28;45688;-61
2021/10/14 09:01:40;;;;;;;;;44.75;37.75;;;;;15.56;53.63;102010.13;5053519;28;45430;-61
2021/10/14 09:04:17;;;;;;;;;45.50;37.25;;;;;15.81;52.79;102015.09;5053756;28;45966;-61
2021/10/14 09:06:43;;;;;;;;;43.75;34.75;;;;;16.02;52.31;102015.06;5035717;28;45601;-61
2021/10/14 09:09:08;;;;;;;;;41.75;34.00;;;;;16.23;51.90;102011.47;5053458;28;45561;-61
2021/10/14 09:11:34;;;;;;;;;42.00;32.50;;;;;16.42;51.39;102016.81;5052999;28;45529;-61
2021/10/14 09:14:04;;;;;;;;;44.00;36.25;;;;;16.62;51.07;102014.16;5052731;28;64973;-61
2021/10/14 09:16:39;;;;;;;;;38.50;34.25;;;;;16.82;50.35;102011.50;5018980;28;45242;-61
2021/10/14 09:19:14;;;;;;;;;45.75;37.00;;;;;17.03;50.09;102004.22;5037084;28;45546;-62
2021/10/14 09:21:41;;;;;;;;;39.25;34.50;;;;;17.24;49.58;102000.56;5053114;28;46470;-62
2021/10/14 09:24:35;;;;;;;;;42.00;35.25;;;;;17.44;49.35;101995.19;5053218;28;45392;-61
2021/10/14 09:27:11;;;;;;;;;42.25;36.00;;;;;17.64;48.97;102006.56;5053804;28;45273;-61
2021/10/14 09:29:38;;;;;;;;;28.75;25.25;;;;;17.84;48.04;101996.69;5035961;28;45682;-61
2021/10/14 09:32:07;;;;;;;;;26.50;24.00;;;;;18.01;47.55;101991.56;5051823;28;45534;-61
2021/10/14 09:34:40;;;;;;;;;22.50;20.50;;;;;18.20;47.16;101995.94;5052122;28;45377;-60
2021/10/14 09:37:26;;;;;;;;;23.50;22.25;;;;;18.38;46.73;101990.63;5034795;28;45305;-60
2021/10/14 09:39:58;;;;;;;;;22.25;18.75;;;;;18.53;45.37;101986.44;5035216;28;45636;-61
2021/10/14 09:42:53;;;;;;;;;21.75;17.00;;;;;18.68;45.40;101985.88;5053135;28;45537;-61
2021/10/14 09:45:30;;;;;;;;;18.00;17.50;;;;;18.85;44.58;101978.81;5067339;27;45524;-61
2021/10/14 09:48:05;;;;;;;;;19.00;17.75;;;;;19.02;44.62;101986.97;5019747;28;45474;-61
2021/10/14 09:50:31;;;;;;;;;16.00;14.75;;;;;19.15;43.65;101979.41;5052921;28;46214;-62
2021/10/14 09:52:58;;;;;;;;;15.25;14.25;;;;;19.23;43.34;101975.94;5052936;28;46093;-61
2021/10/14 09:55:24;;;;;;;;;18.25;15.00;;;;;19.26;44.80;101981.81;5052891;28;45309;-61
2021/10/14 09:57:50;;;;;;;;;13.75;13.25;;;;;19.36;43.80;101979.00;5056365;28;45589;-60
2021/10/14 10:00:15;;;;;;;;;13.25;13.25;;;;;19.47;43.04;101979.72;5056456;28;45515;-60
2021/10/14 10:02:40;;;;;;;;;11.25;11.00;;;;;19.56;42.80;101976.94;5056178;28;46309;-61
2021/10/14 10:05:06;;;;;;;;;13.75;11.50;;;;;19.66;43.40;101976.78;5036990;28;65239;-61
2021/10/14 10:07:31;;;;;;;;;13.50;13.00;;;;;19.79;42.74;101970.19;5037701;28;45315;-61
2021/10/14 10:09:57;;;;;;;;;16.50;16.00;;;;;19.91;41.57;101974.25;5021010;28;56636;-61
2021/10/14 10:12:22;;;;;;;;;24.25;21.50;;;;;19.98;41.62;101967.25;5034223;28;47028;-61
2021/10/14 10:14:51;;;;;;;;;23.00;19.50;;;;;20.08;41.16;101968.97;5037506;28;54537;-60
2021/10/14 10:17:19;;;;;;;;;20.25;16.00;;;;;20.18;39.91;101964.28;5038817;28;45539;-61
2021/10/14 10:19:48;;;;;;;;;17.00;13.25;;;;;20.26;39.35;101956.28;5021951;28;45592;-61
2021/10/14 10:22:32;;;;;;;;;19.00;17.25;;;;;20.33;39.02;101955.63;5056096;28;46049;-61
2021/10/14 10:25:03;;;;;;;;;14.75;12.25;;;;;20.28;39.39;101953.47;5053519;28;45431;-61
2021/10/14 10:27:32;;;;;;;;;14.75;13.25;;;;;20.28;38.88;101954.28;5037828;28;45408;-62
2021/10/14 10:29:58;;;;;;;;;11.75;10.75;;;;;20.29;39.84;101950.63;5020359;28;45693;-61
2021/10/14 10:32:23;;;;;;;;;15.50;12.50;;;;;20.34;39.54;101947.47;5037261;28;46147;-61
2021/10/14 10:34:58;;;;;;;;;13.50;12.00;;;;;20.40;39.47;101941.44;5054055;28;45862;-61
2021/10/14 10:37:28;;;;;;;;;19.50;16.00;;;;;20.51;39.70;101944.78;5038056;28;45685;-61
2021/10/14 10:39:55;;;;;;;;;22.75;17.00;;;;;20.63;39.47;101938.09;5054219;28;45599;-61
2021/10/14 10:42:29;;;;;;;;;17.25;15.75;;;;;20.79;39.28;101933.78;5054862;28;46180;-62
2021/10/14 10:44:55;;;;;;;;;15.75;15.25;;;;;20.88;38.33;101925.56;5036485;28;45915;-61
2021/10/14 10:47:42;;;;;;;;;21.00;20.00;;;;;21.03;38.64;101923.00;5036835;28;45429;-62
2021/10/14 10:50:13;;;;;;;;;14.50;13.00;;;;;21.23;37.95;101929.78;5054829;28;45312;-61
2021/10/14 10:52:39;;;;;;;;;17.00;15.50;;;;;21.42;38.03;101923.22;5054860;28;45763;-61
2021/10/14 10:55:32;;;;;;;;;11.75;11.50;;;;;21.56;36.44;101927.00;5055680;28;46096;-61
2021/10/14 10:57:58;;;;;;;;;8.25;7.00;;;;;21.59;37.02;101921.28;5056117;28;45835;-61
2021/10/14 11:00:23;;;;;;;;;7.00;6.00;;;;;21.65;36.20;101925.97;5037586;28;45262;-61
2021/10/14 11:03:20;;;;;;;;;5.50;5.50;;;;;21.63;35.39;101918.13;5055622;28;45288;-61
2021/10/14 11:05:50;;;;;;;;;7.00;4.25;;;;;21.62;35.31;101912.94;5055576;28;46025;-61
2021/10/14 11:08:29;;;;;;;;;4.00;4.00;;;;;21.72;35.39;101905.53;5054076;28;45423;-62
2021/10/14 11:10:58;;;;;;;;;9.00;5.25;;;;;21.89;35.97;101905.41;5055474;28;45510;-61